Time;durP1;ratioP1;P1;durP2;ratioP2;P2;SDS_P1;SDS_P2;PMS_P1;PMS_P2;Temp;Humidity;BMP_temperature;BMP_pressure;BME280_temperature;BME280_humidity;BME280_pressure;Samples;Min_cycle;Max_cycle;Signal;HPM_P1;HPM_P2
2022/08/24 00:00:20;;;;;;;35.83;30.40;;;22.00;99.90;;;;;;4980527;28;20129;-70
2022/08/24 00:02:46;;;;;;;37.40;30.95;;;22.00;99.90;;;;;;4980423;28;20100;-70
2022/08/24 00:05:13;;;;;;;40.17;30.83;;;21.90;99.90;;;;;;4980426;28;20043;-69
2022/08/24 00:07:39;;;;;;;36.03;30.30;;;21.80;99.90;;;;;;4980516;28;20159;-70
2022/08/24 00:10:07;;;;;;;33.50;29.13;;;21.80;99.90;;;;;;4980564;28;20333;-70
2022/08/24 00:12:33;;;;;;;35.88;31.45;;;21.80;99.90;;;;;;4995848;28;20322;-70
2022/08/24 00:14:58;;;;;;;39.38;34.55;;;21.80;99.90;;;;;;4980307;28;20055;-70
2022/08/24 00:17:24;;;;;;;35.42;30.73;;;21.80;99.90;;;;;;4980438;28;20394;-70
2022/08/24 00:19:51;;;;;;;34.95;30.52;;;21.80;99.90;;;;;;4980619;28;20043;-70
2022/08/24 00:22:17;;;;;;;35.80;31.05;;;21.90;99.90;;;;;;4980218;28;20410;-70
2022/08/24 00:24:43;;;;;;;38.72;34.00;;;21.80;99.90;;;;;;4980020;28;20038;-70
2022/08/24 00:27:11;;;;;;;35.38;29.92;;;21.70;99.90;;;;;;4980155;28;20037;-71
2022/08/24 00:29:37;;;;;;;34.65;30.23;;;21.70;99.90;;;;;;4980176;28;20097;-70
2022/08/24 00:32:03;;;;;;;38.97;32.97;;;21.60;99.90;;;;;;4979723;28;20051;-70
2022/08/24 00:34:30;;;;;;;38.63;33.35;;;21.50;99.90;;;;;;4980077;28;20117;-70
2022/08/24 00:36:56;;;;;;;41.85;34.38;;;21.50;99.90;;;;;;4980155;28;20043;-70
2022/08/24 00:39:21;;;;;;;35.85;31.15;;;21.40;99.90;;;;;;4979743;28;20448;-70
2022/08/24 00:41:49;;;;;;;41.60;34.30;;;21.40;99.90;;;;;;4979985;28;20031;-70
2022/08/24 00:44:16;;;;;;;38.40;32.58;;;21.40;99.90;;;;;;4979896;28;20448;-70
2022/08/24 00:47:03;;;;;;;35.55;31.75;;;21.50;99.90;;;;;;4979866;28;20043;-70
2022/08/24 00:49:45;;;;;;;35.08;30.02;;;21.60;99.90;;;;;;4980033;28;20121;-70
2022/08/24 00:52:23;;;;;;;36.00;30.95;;;21.40;99.90;;;;;;4979689;28;20050;-70
2022/08/24 00:54:59;;;;;;;35.85;30.95;;;21.40;99.90;;;;;;4979815;28;20051;-70
2022/08/24 00:57:29;;;;;;;37.00;31.80;;;21.30;99.90;;;;;;4979867;28;20047;-70
2022/08/24 01:00:01;;;;;;;41.63;33.80;;;21.30;99.90;;;;;;4979734;28;20333;-70
2022/08/24 01:02:32;;;;;;;39.88;34.05;;;21.40;99.90;;;;;;4979178;28;20082;-69
2022/08/24 01:05:02;;;;;;;41.22;33.85;;;21.30;99.90;;;;;;4979466;28;20430;-70
2022/08/24 01:07:30;;;;;;;40.47;34.30;;;21.30;99.90;;;;;;4978472;28;20051;-70
2022/08/24 01:10:00;;;;;;;36.65;31.27;;;21.20;99.90;;;;;;4978510;28;20125;-70
2022/08/24 01:12:29;;;;;;;36.55;30.95;;;21.30;99.90;;;;;;4979500;28;20035;-70
2022/08/24 01:14:56;;;;;;;38.15;32.17;;;21.20;99.90;;;;;;4979399;28;20054;-70
2022/08/24 01:20:09;;;;;;;32.95;28.45;;;21.20;99.90;;;;;;4979198;28;20065;-70
2022/08/24 01:22:52;;;;;;;29.83;26.63;;;21.10;99.90;;;;;;4979218;28;20121;-70
2022/08/24 01:25:18;;;;;;;27.83;24.83;;;21.00;99.90;;;;;;4979087;28;20047;-70
2022/08/24 01:27:46;;;;;;;22.48;20.17;;;21.00;99.90;;;;;;4979015;28;20035;-71
2022/08/24 01:30:13;;;;;;;29.58;26.33;;;21.00;99.90;;;;;;4979288;28;20038;-70
2022/08/24 01:32:41;;;;;;;19.65;17.65;;;21.00;99.90;;;;;;4993470;28;20322;-70
2022/08/24 01:35:07;;;;;;;20.55;18.35;;;21.10;99.90;;;;;;4979080;28;20055;-70
2022/08/24 01:37:34;;;;;;;23.80;21.05;;;21.00;99.90;;;;;;4978831;28;20185;-70
2022/08/24 01:40:05;;;;;;;20.80;18.60;;;21.00;99.90;;;;;;4978973;28;20384;-70
2022/08/24 01:42:33;;;;;;;18.98;17.05;;;21.00;99.90;;;;;;4979040;28;20043;-70
2022/08/24 01:44:59;;;;;;;22.10;19.70;;;20.90;99.90;;;;;;4978771;28;20093;-70
2022/08/24 01:47:25;;;;;;;18.65;16.75;;;20.90;99.90;;;;;;4978675;28;20043;-70
2022/08/24 01:49:50;;;;;;;21.70;19.40;;;20.90;99.90;;;;;;4978122;28;20085;-70
2022/08/24 01:52:23;;;;;;;24.33;20.38;;;20.90;99.90;;;;;;4978604;28;20405;-70
2022/08/24 01:54:49;;;;;;;25.45;21.88;;;20.80;99.90;;;;;;4978402;28;20093;-70
2022/08/24 01:57:15;;;;;;;25.88;22.30;;;20.80;99.90;;;;;;4978696;28;20043;-69
2022/08/24 01:59:41;;;;;;;27.83;24.02;;;20.80;99.90;;;;;;4994046;28;20039;-70
2022/08/24 02:02:16;;;;;;;25.75;22.92;;;20.80;99.90;;;;;;4977964;28;20031;-70
2022/08/24 02:04:42;;;;;;;30.83;24.70;;;20.70;99.90;;;;;;4978440;28;20421;-69
2022/08/24 02:07:08;;;;;;;25.90;23.05;;;20.70;99.90;;;;;;4978333;28;20529;-69
2022/08/24 02:09:35;;;;;;;29.35;25.10;;;20.70;99.90;;;;;;4978532;28;20092;-69
2022/08/24 02:12:02;;;;;;;27.40;24.25;;;20.60;99.90;;;;;;4978207;28;20038;-69
2022/08/24 02:14:28;;;;;;;27.17;24.27;;;20.70;99.90;;;;;;4978306;28;20050;-70
2022/08/24 02:16:56;;;;;;;29.83;24.80;;;20.70;99.90;;;;;;4978294;28;20124;-70
2022/08/24 02:19:22;;;;;;;26.15;23.35;;;20.60;99.90;;;;;;4978110;28;20050;-70
2022/08/24 02:21:48;;;;;;;32.08;26.02;;;20.70;99.90;;;;;;4978352;28;20043;-70
2022/08/24 02:24:14;;;;;;;25.08;22.38;;;20.70;99.90;;;;;;4978016;28;20062;-70
2022/08/24 02:26:40;;;;;;;23.92;21.35;;;20.70;99.90;;;;;;4978311;28;20110;-70
2022/08/24 02:29:05;;;;;;;24.75;21.85;;;20.60;99.90;;;;;;4978053;28;20134;-70
2022/08/24 02:31:31;;;;;;;27.00;23.08;;;20.70;99.90;;;;;;4977610;28;20039;-70
2022/08/24 02:33:58;;;;;;;27.35;22.48;;;20.70;99.90;;;;;;4993125;28;20129;-69
2022/08/24 02:36:23;;;;;;;26.33;23.38;;;20.60;99.90;;;;;;4977990;28;20121;-70
2022/08/24 02:38:49;;;;;;;28.38;23.90;;;20.70;99.90;;;;;;4977719;28;20093;-70
2022/08/24 02:41:15;;;;;;;30.33;25.35;;;20.70;99.90;;;;;;4976687;28;20095;-70
2022/08/24 02:43:41;;;;;;;28.83;24.73;;;20.70;99.90;;;;;;4977733;28;20351;-69
2022/08/24 02:46:07;;;;;;;30.60;25.08;;;20.60;99.90;;;;;;4976544;28;20123;-70
2022/08/24 02:48:33;;;;;;;27.55;24.08;;;20.60;99.90;;;;;;4992842;28;20043;-70
2022/08/24 02:50:59;;;;;;;28.65;24.23;;;20.50;99.90;;;;;;4977840;28;20070;-70
2022/08/24 02:53:25;;;;;;;28.70;24.33;;;20.50;99.90;;;;;;4977588;28;20043;-69
2022/08/24 02:55:51;;;;;;;30.40;26.50;;;20.40;99.90;;;;;;4992776;28;20500;-70
2022/08/24 02:58:17;;;;;;;34.55;28.48;;;20.40;99.90;;;;;;4977642;28;20046;-70
2022/08/24 03:00:45;;;;;;;31.95;25.85;;;20.40;99.90;;;;;;4977412;28;20042;-69
2022/08/24 03:03:10;;;;;;;34.92;28.27;;;20.50;99.90;;;;;;4976730;28;20053;-69
2022/08/24 03:05:36;;;;;;;36.92;29.33;;;20.40;99.90;;;;;;4977575;28;20047;-70
2022/08/24 03:08:02;;;;;;;36.20;29.65;;;20.40;99.90;;;;;;4992437;28;20035;-70
2022/08/24 03:10:28;;;;;;;32.65;27.55;;;20.50;99.90;;;;;;4977524;28;20043;-70
2022/08/24 03:12:54;;;;;;;31.67;26.88;;;20.60;99.90;;;;;;4977531;28;20388;-70
2022/08/24 03:15:21;;;;;;;36.72;29.35;;;20.60;99.90;;;;;;4977299;28;20055;-70
2022/08/24 03:17:48;;;;;;;32.35;27.30;;;20.60;99.90;;;;;;4977348;28;20050;-69
2022/08/24 03:20:16;;;;;;;34.30;28.10;;;20.50;99.90;;;;;;4977456;28;20050;-69
2022/08/24 03:22:42;;;;;;;31.88;27.50;;;20.50;99.90;;;;;;4977608;28;20051;-69
2022/08/24 03:25:09;;;;;;;31.50;26.73;;;20.40;99.90;;;;;;4977390;28;20074;-69
2022/08/24 03:27:35;;;;;;;29.90;25.55;;;20.30;99.90;;;;;;4976292;28;20401;-69
2022/08/24 03:30:01;;;;;;;28.50;25.08;;;20.40;99.90;;;;;;4977349;28;20074;-70
2022/08/24 03:32:27;;;;;;;34.45;27.25;;;20.30;99.90;;;;;;4976882;28;20051;-70
2022/08/24 03:34:53;;;;;;;31.25;26.63;;;20.20;99.90;;;;;;4977190;28;20073;-70
2022/08/24 03:37:19;;;;;;;32.83;27.88;;;20.10;99.90;;;;;;4976135;28;20054;-70
2022/08/24 03:39:46;;;;;;;32.53;26.13;;;20.10;99.90;;;;;;4977435;28;20105;-70
2022/08/24 03:42:13;;;;;;;33.50;27.55;;;20.20;99.90;;;;;;4977869;28;20038;-69
2022/08/24 03:44:40;;;;;;;33.55;27.33;;;20.30;99.90;;;;;;4977380;28;20177;-69
2022/08/24 03:47:09;;;;;;;30.65;26.10;;;20.30;99.90;;;;;;4977203;28;20436;-69
2022/08/24 03:49:36;;;;;;;33.17;27.00;;;20.30;99.90;;;;;;4992420;28;20043;-70
2022/08/24 03:52:02;;;;;;;33.15;27.00;;;20.30;99.90;;;;;;4976975;28;20046;-69
2022/08/24 03:54:28;;;;;;;28.58;23.95;;;20.30;99.90;;;;;;4977253;28;20433;-69
2022/08/24 03:56:54;;;;;;;32.03;25.70;;;20.30;99.90;;;;;;4977475;28;20046;-69
2022/08/24 03:59:20;;;;;;;31.10;25.30;;;20.20;99.90;;;;;;4977097;28;20337;-70
2022/08/24 04:01:45;;;;;;;31.65;24.05;;;20.20;99.90;;;;;;4976910;28;20321;-69
2022/08/24 04:04:11;;;;;;;30.52;25.05;;;20.20;99.90;;;;;;4976897;28;20496;-70
2022/08/24 04:06:37;;;;;;;32.75;26.27;;;20.10;99.90;;;;;;4971754;28;20342;-70
2022/08/24 04:09:04;;;;;;;31.92;24.67;;;20.10;99.90;;;;;;4956196;28;20126;-69
2022/08/24 04:11:30;;;;;;;35.55;27.27;;;20.10;99.90;;;;;;4957721;28;20039;-70
2022/08/24 04:13:57;;;;;;;32.67;27.42;;;20.10;99.90;;;;;;4959882;28;20094;-70
2022/08/24 04:16:23;;;;;;;33.20;26.88;;;20.10;99.90;;;;;;4960878;28;20046;-70
2022/08/24 04:18:49;;;;;;;32.85;27.20;;;20.10;99.90;;;;;;4960993;28;20043;-70
2022/08/24 04:21:24;;;;;;;30.58;25.10;;;20.10;99.90;;;;;;4961111;28;20097;-70
2022/08/24 04:23:53;;;;;;;29.02;24.23;;;20.10;99.90;;;;;;4961221;28;20039;-70
2022/08/24 04:26:21;;;;;;;32.95;25.77;;;20.10;99.90;;;;;;4960039;29;20398;-70
2022/08/24 04:28:47;;;;;;;31.00;24.63;;;20.10;99.90;;;;;;4959969;29;20035;-69
2022/08/24 04:31:14;;;;;;;30.30;24.55;;;20.10;99.90;;;;;;4960131;29;20546;-70
2022/08/24 04:33:40;;;;;;;28.30;23.95;;;20.00;99.90;;;;;;4960105;28;20091;-70
2022/08/24 04:36:08;;;;;;;37.08;29.13;;;19.90;99.90;;;;;;4960915;28;20047;-70
2022/08/24 04:38:35;;;;;;;31.35;25.90;;;20.10;99.90;;;;;;4960543;28;20430;-69
2022/08/24 04:41:04;;;;;;;30.48;24.30;;;20.20;99.90;;;;;;4960791;28;20134;-70
2022/08/24 04:43:29;;;;;;;29.50;24.88;;;20.10;99.90;;;;;;4960522;28;20050;-69
2022/08/24 04:45:55;;;;;;;34.13;25.33;;;20.10;99.90;;;;;;4959611;29;20047;-69
2022/08/24 04:48:21;;;;;;;31.00;24.27;;;20.10;99.90;;;;;;4960482;28;20335;-70
2022/08/24 04:50:48;;;;;;;31.67;25.35;;;20.10;99.90;;;;;;4975433;28;20065;-70
2022/08/24 04:53:14;;;;;;;31.75;25.02;;;20.10;99.90;;;;;;4960640;28;20114;-70
2022/08/24 04:55:43;;;;;;;19.95;16.90;;;20.20;99.90;;;;;;4960486;28;20050;-70
2022/08/24 04:58:10;;;;;;;16.98;14.63;;;20.10;99.90;;;;;;4960587;28;20113;-70
2022/08/24 05:00:37;;;;;;;16.90;15.10;;;20.10;99.90;;;;;;4960350;28;20425;-70
2022/08/24 05:03:02;;;;;;;18.65;15.30;;;20.10;99.90;;;;;;4975183;28;20043;-69
2022/08/24 05:05:28;;;;;;;16.65;14.52;;;20.10;99.90;;;;;;4975165;28;20054;-69
2022/08/24 05:07:54;;;;;;;17.50;15.50;;;20.20;99.90;;;;;;4960454;28;20043;-69
2022/08/24 05:10:21;;;;;;;18.52;16.50;;;20.20;99.90;;;;;;4960092;28;20035;-69
2022/08/24 05:12:46;;;;;;;18.73;15.85;;;20.20;99.90;;;;;;4960047;28;20438;-69
2022/08/24 05:15:12;;;;;;;15.55;12.55;;;20.20;99.90;;;;;;4959178;29;20062;-70
2022/08/24 05:17:40;;;;;;;15.15;13.30;;;20.20;99.90;;;;;;4960159;28;20042;-69
2022/08/24 05:20:08;;;;;;;15.90;13.75;;;20.20;99.90;;;;;;4959940;28;20434;-70
2022/08/24 05:22:34;;;;;;;15.50;13.73;;;20.10;99.90;;;;;;4959853;28;20145;-69
2022/08/24 05:25:00;;;;;;;17.55;15.65;;;20.10;99.90;;;;;;4959162;28;20322;-69
2022/08/24 05:27:25;;;;;;;17.73;15.93;;;20.20;99.90;;;;;;4974887;28;20050;-69
2022/08/24 05:29:53;;;;;;;17.38;15.55;;;20.20;99.90;;;;;;4959668;28;20470;-70
2022/08/24 05:32:19;;;;;;;19.52;15.90;;;20.40;99.90;;;;;;4959037;28;20134;-69
2022/08/24 05:34:44;;;;;;;17.77;15.82;;;20.40;99.90;;;;;;4959786;28;20050;-70
2022/08/24 05:37:10;;;;;;;17.15;14.75;;;20.50;99.90;;;;;;4959736;28;20039;-69
2022/08/24 05:39:36;;;;;;;14.98;13.48;;;20.60;99.90;;;;;;4959579;28;20394;-69
2022/08/24 05:42:02;;;;;;;14.52;13.02;;;20.60;99.90;;;;;;4959527;28;20086;-70
2022/08/24 05:44:30;;;;;;;14.35;12.93;;;20.80;99.90;;;;;;4974511;28;20079;-70
2022/08/24 05:47:00;;;;;;;16.15;14.52;;;20.80;99.90;;;;;;4959523;28;20035;-70
2022/08/24 05:49:27;;;;;;;15.48;13.88;;;20.90;99.90;;;;;;4959651;28;20077;-70
2022/08/24 05:51:53;;;;;;;22.13;17.65;;;21.00;99.90;;;;;;4959703;28;20113;-69
2022/08/24 05:54:21;;;;;;;20.25;17.13;;;21.10;99.90;;;;;;4959250;28;20311;-69
2022/08/24 05:56:47;;;;;;;20.65;16.80;;;21.30;99.90;;;;;;4959199;28;20435;-70
2022/08/24 05:59:13;;;;;;;21.85;18.55;;;21.40;99.90;;;;;;4959300;28;20043;-70
2022/08/24 06:01:41;;;;;;;18.48;16.58;;;21.50;99.90;;;;;;4959290;28;20054;-70
2022/08/24 06:04:06;;;;;;;24.77;19.63;;;21.60;99.90;;;;;;4958981;28;20426;-70
2022/08/24 06:06:32;;;;;;;21.20;18.20;;;21.70;99.90;;;;;;4957938;28;20054;-69
2022/08/24 06:08:59;;;;;;;24.67;19.80;;;21.80;99.90;;;;;;4959268;28;20418;-69
2022/08/24 06:11:28;;;;;;;22.67;20.27;;;21.90;99.90;;;;;;4974106;28;20035;-70
2022/08/24 06:13:57;;;;;;;27.48;23.75;;;22.00;99.90;;;;;;4959244;28;20047;-69
2022/08/24 06:16:22;;;;;;;28.13;25.02;;;22.10;99.90;;;;;;4958929;28;20035;-70
2022/08/24 06:18:50;;;;;;;36.47;30.70;;;22.20;99.90;;;;;;4958995;28;20035;-69
2022/08/24 06:21:19;;;;;;;39.72;32.85;;;22.30;99.90;;;;;;4958854;28;20497;-69
2022/08/24 06:23:45;;;;;;;44.42;34.80;;;22.30;99.90;;;;;;4959023;28;20162;-70
2022/08/24 06:28:58;;;;;;;34.78;27.98;;;22.50;99.90;;;;;;4958822;28;20346;-69
2022/08/24 06:31:23;;;;;;;35.95;29.75;;;22.60;99.90;;;;;;4958612;28;20101;-70
2022/08/24 06:33:49;;;;;;;37.55;31.67;;;22.80;99.90;;;;;;4958265;28;20107;-70
2022/08/24 06:36:15;;;;;;;46.78;37.58;;;22.90;99.90;;;;;;4958666;28;20039;-71
2022/08/24 06:38:42;;;;;;;39.83;31.77;;;23.00;99.90;;;;;;4958421;28;20039;-70
2022/08/24 06:41:08;;;;;;;40.70;33.45;;;23.00;99.90;;;;;;4958698;28;20050;-69
2022/08/24 06:43:35;;;;;;;43.63;34.15;;;23.10;99.90;;;;;;4973440;28;20054;-70
2022/08/24 06:46:01;;;;;;;48.95;38.00;;;23.30;99.90;;;;;;4958794;28;20122;-70
2022/08/24 06:48:29;;;;;;;53.28;40.97;;;23.30;99.90;;;;;;4958670;28;20122;-70
2022/08/24 06:50:54;;;;;;;48.60;37.05;;;23.40;99.90;;;;;;4958485;28;20075;-70
2022/08/24 06:53:20;;;;;;;53.28;40.80;;;23.40;99.90;;;;;;4958320;28;20126;-70
2022/08/24 06:55:50;;;;;;;48.50;38.97;;;23.40;99.90;;;;;;4958522;28;20039;-70
2022/08/24 06:58:17;;;;;;;52.75;40.70;;;23.60;99.90;;;;;;4958634;28;20333;-69
2022/08/24 07:00:43;;;;;;;40.25;33.67;;;23.70;99.90;;;;;;4958255;28;20054;-75
2022/08/24 07:03:09;;;;;;;39.80;31.35;;;23.90;99.90;;;;;;4956857;28;20043;-70
2022/08/24 07:05:35;;;;;;;38.17;33.17;;;23.90;99.90;;;;;;4958363;28;20039;-72
2022/08/24 07:08:01;;;;;;;34.35;27.25;;;24.00;99.90;;;;;;4957181;29;20071;-70
2022/08/24 07:10:29;;;;;;;32.30;25.77;;;24.00;99.90;;;;;;4958446;28;20039;-72
2022/08/24 07:12:55;;;;;;;34.25;28.25;;;23.90;99.90;;;;;;4958294;28;20043;-71
2022/08/24 07:15:22;;;;;;;31.92;25.45;;;24.00;99.90;;;;;;4958443;28;20078;-70
2022/08/24 07:17:47;;;;;;;30.42;25.75;;;24.20;99.90;;;;;;4958037;28;20054;-70
2022/08/24 07:20:13;;;;;;;28.35;22.88;;;24.40;99.90;;;;;;4958148;28;20035;-70
2022/08/24 07:22:39;;;;;;;29.58;23.52;;;24.50;99.90;;;;;;4958154;28;20039;-70
2022/08/24 07:25:05;;;;;;;25.58;19.38;;;24.70;99.90;;;;;;4958080;28;20075;-71
2022/08/24 07:27:33;;;;;;;20.95;16.15;;;24.90;99.90;;;;;;4958189;28;20043;-70
2022/08/24 07:29:58;;;;;;;18.50;14.90;;;25.00;99.90;;;;;;4956928;29;20118;-70
2022/08/24 07:32:24;;;;;;;20.55;13.60;;;25.00;99.90;;;;;;4957627;28;20178;-70
2022/08/24 07:34:50;;;;;;;15.30;11.30;;;25.10;99.90;;;;;;4957946;28;20051;-69
2022/08/24 07:37:16;;;;;;;12.73;7.20;;;25.20;99.90;;;;;;4958315;28;20044;-70
2022/08/24 07:39:41;;;;;;;11.68;7.00;;;25.30;99.90;;;;;;4958054;28;20124;-71
2022/08/24 07:42:07;;;;;;;13.90;9.05;;;25.40;99.90;;;;;;4958124;28;20078;-68
2022/08/24 07:44:34;;;;;;;13.00;10.90;;;25.20;99.90;;;;;;4957821;28;20040;-68
2022/08/24 07:47:00;;;;;;;16.65;11.15;;;25.20;99.90;;;;;;4972875;28;20051;-68
2022/08/24 07:49:26;;;;;;;15.48;11.00;;;25.00;99.90;;;;;;4961627;28;20118;-68
2022/08/24 07:51:52;;;;;;;15.10;9.77;;;25.00;99.90;;;;;;4961707;28;20039;-73
2022/08/24 07:54:19;;;;;;;16.05;10.90;;;25.20;99.90;;;;;;4960692;28;20039;-70
2022/08/24 07:56:45;;;;;;;13.38;9.75;;;25.20;99.90;;;;;;4962138;28;20036;-72
2022/08/24 07:59:11;;;;;;;15.20;10.57;;;25.20;99.90;;;;;;4963863;28;20127;-71
2022/08/24 08:01:37;;;;;;;14.95;10.13;;;25.30;99.90;;;;;;4976494;28;20059;-71
2022/08/24 08:04:04;;;;;;;14.75;10.07;;;25.30;99.90;;;;;;4961038;28;20039;-71
2022/08/24 08:06:30;;;;;;;12.02;9.32;;;25.10;99.90;;;;;;4961351;28;20039;-70
2022/08/24 08:08:55;;;;;;;10.77;8.88;;;25.20;99.90;;;;;;4961295;28;20118;-70
2022/08/24 08:11:21;;;;;;;17.95;10.88;;;25.20;99.90;;;;;;4961460;28;20039;-71
2022/08/24 08:13:48;;;;;;;15.10;10.98;;;25.20;99.90;;;;;;4961198;28;20098;-71
2022/08/24 08:16:14;;;;;;;17.95;9.88;;;25.20;99.90;;;;;;4961123;28;20126;-71
2022/08/24 08:18:40;;;;;;;13.43;8.77;;;25.20;99.90;;;;;;4976168;28;20047;-71
2022/08/24 08:24:13;;;;;;;11.32;8.57;;;25.40;99.90;;;;;;4961315;28;20118;-71
2022/08/24 08:26:36;;;;;;;14.88;9.15;;;25.50;99.90;;;;;;4961140;28;20224;-68
2022/08/24 08:29:02;;;;;;;12.55;8.45;;;25.60;99.90;;;;;;4960863;28;20043;-69
2022/08/24 08:31:27;;;;;;;15.45;8.15;;;25.60;99.90;;;;;;4960775;28;20047;-69
2022/08/24 08:33:53;;;;;;;13.85;6.88;;;25.60;99.90;;;;;;4960732;28;20070;-69
2022/08/24 08:36:21;;;;;;;10.50;8.25;;;25.80;99.90;;;;;;4961066;28;20038;-68
2022/08/24 08:38:46;;;;;;;12.85;8.63;;;25.90;99.90;;;;;;4960797;28;20054;-68
2022/08/24 08:41:12;;;;;;;13.90;9.32;;;25.90;99.90;;;;;;4960656;28;20035;-69
2022/08/24 08:44:04;;;;;;;13.70;9.02;;;26.00;99.90;;;;;;4960027;29;20327;-72
2022/08/24 08:46:48;;;;;;;13.18;7.78;;;26.00;99.90;;;;;;4960661;28;20086;-72
2022/08/24 08:49:38;;;;;;;14.60;8.52;;;25.80;99.90;;;;;;4960711;28;20201;-73
2022/08/24 08:52:38;;;;;;;12.55;6.88;;;25.90;99.90;;;;;;4960495;28;20051;-73
2022/08/24 08:55:26;;;;;;;15.43;9.07;;;26.00;99.90;;;;;;4960411;28;20043;-72
2022/08/24 08:57:59;;;;;;;11.80;7.65;;;26.00;99.90;;;;;;4960514;28;20075;-73
2022/08/24 09:00:38;;;;;;;11.93;6.70;;;26.10;99.90;;;;;;4975525;28;20191;-73
2022/08/24 09:03:22;;;;;;;11.90;6.55;;;26.20;99.90;;;;;;4960492;28;20066;-69
2022/08/24 09:05:56;;;;;;;11.50;6.35;;;26.40;99.90;;;;;;4960170;28;20488;-69
2022/08/24 09:08:58;;;;;;;8.75;5.15;;;26.60;99.90;;;;;;4960267;28;20065;-70
2022/08/24 09:11:52;;;;;;;8.77;5.45;;;26.90;99.90;;;;;;4960262;28;20047;-71
2022/08/24 09:14:36;;;;;;;7.95;4.60;;;27.00;99.90;;;;;;4960174;28;20118;-71
2022/08/24 09:17:37;;;;;;;7.05;4.38;;;27.20;99.90;;;;;;4959885;28;20090;-71
2022/08/24 09:20:15;;;;;;;7.63;4.00;;;27.50;99.90;;;;;;4969480;28;20438;-71
2022/08/24 09:22:43;;;;;;;7.25;4.93;;;27.80;99.90;;;;;;4975386;28;20039;-71
2022/08/24 09:25:23;;;;;;;10.65;6.20;;;27.90;99.90;;;;;;4959695;28;20142;-71
2022/08/24 09:28:08;;;;;;;7.72;4.35;;;28.00;99.90;;;;;;4960056;28;20039;-71
2022/08/24 09:30:44;;;;;;;7.90;4.05;;;28.10;99.90;;;;;;4958864;29;20050;-71
2022/08/24 09:33:21;;;;;;;5.60;3.28;;;28.10;99.90;;;;;;4959151;28;20091;-71
2022/08/24 09:35:50;;;;;;;6.28;3.50;;;28.20;99.90;;;;;;4974692;28;20438;-71
2022/08/24 09:38:34;;;;;;;7.53;3.60;;;28.40;99.90;;;;;;4959632;28;20070;-71
2022/08/24 09:41:17;;;;;;;10.23;3.53;;;28.70;99.90;;;;;;4959734;28;20043;-71
2022/08/24 09:44:06;;;;;;;8.23;3.78;;;28.70;99.90;;;;;;4959831;28;20051;-71
2022/08/24 09:46:32;;;;;;;6.40;3.20;;;28.90;99.90;;;;;;4961575;28;20073;-71
2022/08/24 09:49:29;;;;;;;5.00;3.50;;;29.00;99.90;;;;;;4959576;28;20434;-71
2022/08/24 09:52:14;;;;;;;5.53;3.90;;;29.10;99.90;;;;;;4959360;28;20430;-71
2022/08/24 09:55:00;;;;;;;5.60;3.35;;;29.20;99.90;;;;;;4959139;28;20047;-71
2022/08/24 09:57:58;;;;;;;4.22;3.00;;;29.30;99.90;;;;;;4959530;28;20039;-71
2022/08/24 10:00:46;;;;;;;9.48;4.60;;;29.40;99.90;;;;;;4959201;28;20093;-71
2022/08/24 10:03:22;;;;;;;6.07;3.00;;;29.20;99.90;;;;;;4958760;28;20050;-71
2022/08/24 10:05:59;;;;;;;;;;;29.40;99.90;;;;;;4959739;28;20047;-71
2022/08/24 10:09:00;;;;;;;6.40;3.30;;;29.50;99.90;;;;;;4959054;28;19918;-71
2022/08/24 10:11:35;;;;;;;6.35;3.17;;;29.70;99.90;;;;;;4979487;28;20047;-72
2022/08/24 10:14:26;;;;;;;5.35;3.20;;;29.80;99.80;;;;;;4976431;28;20114;-72
2022/08/24 10:16:55;;;;;;;4.35;2.90;;;30.00;99.90;;;;;;4977940;28;20507;-71
2022/08/24 10:19:26;;;;;;;7.00;2.50;;;29.90;99.80;;;;;;4977090;28;20066;-71
2022/08/24 10:22:24;;;;;;;5.25;2.55;;;30.20;99.90;;;;;;4976843;28;20047;-71
2022/08/24 10:25:08;;;;;;;7.75;3.10;;;30.30;99.90;;;;;;4964553;28;20307;-72
2022/08/24 10:28:13;;;;;;;8.23;2.40;;;30.10;99.50;;;;;;4957375;29;20468;-70
2022/08/24 10:31:04;;;;;;;5.57;2.30;;;30.10;99.90;;;;;;4973620;28;20055;-70
2022/08/24 10:33:43;;;;;;;3.88;2.90;;;30.50;99.70;;;;;;4958041;29;20055;-70
2022/08/24 10:37:06;;;;;;;5.88;1.98;;;30.50;99.70;;;;;;4958658;29;20051;-71
2022/08/24 10:40:00;;;;;;;3.25;1.92;;;30.70;99.60;;;;;;5015114;28;20092;-70
2022/08/24 10:45:37;;;;;;;2.83;2.25;;;30.60;99.30;;;;;;4968389;28;20091;-70
2022/08/24 10:48:21;;;;;;;5.10;2.28;;;30.90;99.40;;;;;;4973550;28;20045;-70
2022/08/24 10:50:57;;;;;;;3.50;1.60;;;31.00;99.60;;;;;;4958579;28;20094;-71
2022/08/24 10:53:24;;;;;;;4.55;1.70;;;31.30;99.40;;;;;;4958694;29;20349;-70
2022/08/24 10:56:07;;;;;;;2.63;1.63;;;31.70;99.40;;;;;;4958573;29;20043;-70
2022/08/24 10:58:55;;;;;;;5.07;2.00;;;32.10;99.50;;;;;;4958691;29;20362;-70
2022/08/24 11:01:33;;;;;;;2.75;1.67;;;32.40;99.00;;;;;;4973747;28;20047;-70
2022/08/24 11:04:11;;;;;;;2.97;1.70;;;32.40;99.00;;;;;;4958066;28;20043;-70
2022/08/24 11:06:43;;;;;;;5.15;1.80;;;32.40;99.20;;;;;;4958405;29;20051;-70
2022/08/24 11:09:15;;;;;;;2.78;1.50;;;32.20;98.60;;;;;;4973544;28;20082;-70
2022/08/24 11:11:45;;;;;;;5.45;2.05;;;32.30;98.70;;;;;;4958228;29;20334;-71
2022/08/24 11:14:24;;;;;;;4.32;1.85;;;32.40;98.70;;;;;;4960408;29;20043;-77
2022/08/24 11:16:51;;;;;;;5.70;1.85;;;32.10;98.50;;;;;;4958058;29;20039;-71
2022/08/24 11:19:25;;;;;;;2.58;1.80;;;31.90;98.70;;;;;;4958090;28;20446;-71
2022/08/24 11:22:00;;;;;;;4.43;2.10;;;32.10;98.50;;;;;;4958356;28;20102;-71
2022/08/24 11:24:47;;;;;;;6.90;1.92;;;32.30;98.40;;;;;;4961860;29;20039;-72
2022/08/24 11:27:16;;;;;;;3.25;1.65;;;32.10;98.80;;;;;;4961974;29;20045;-72
2022/08/24 11:29:50;;;;;;;5.80;2.00;;;31.80;98.30;;;;;;4962008;29;20126;-72
2022/08/24 11:32:30;;;;;;;4.13;3.03;;;31.60;98.50;;;;;;4961315;28;20062;-72
2022/08/24 11:35:01;;;;;;;3.53;2.00;;;32.00;98.40;;;;;;4962071;29;20126;-73
2022/08/24 11:37:34;;;;;;;4.88;2.35;;;32.50;98.70;;;;;;4962101;29;20043;-72
2022/08/24 11:40:00;;;;;;;2.92;1.90;;;32.20;98.30;;;;;;4961952;28;20039;-72
2022/08/24 11:42:56;;;;;;;4.60;2.05;;;32.00;98.30;;;;;;4961879;29;20058;-71
2022/08/24 11:45:28;;;;;;;3.42;2.03;;;32.50;98.50;;;;;;4961740;28;20046;-74
2022/08/24 11:48:03;;;;;;;3.10;1.70;;;32.90;98.30;;;;;;4961482;28;20476;-74
2022/08/24 11:50:39;;;;;;;3.88;1.65;;;33.40;98.30;;;;;;4961951;28;20047;-74
2022/08/24 11:53:11;;;;;;;3.30;1.38;;;33.90;98.20;;;;;;4961755;28;20043;-72
2022/08/24 11:56:03;;;;;;;3.67;1.60;;;33.80;97.80;;;;;;4961710;28;20039;-72
2022/08/24 11:58:39;;;;;;;5.20;1.65;;;33.40;97.80;;;;;;4963852;28;20478;-72
2022/08/24 12:01:27;;;;;;;1.30;1.20;;;33.10;98.00;;;;;;4961728;28;20332;-72
2022/08/24 12:03:59;;;;;;;2.83;1.20;;;33.00;98.10;;;;;;4959850;28;20105;-74
2022/08/24 12:06:43;;;;;;;8.55;1.50;;;32.90;98.10;;;;;;4961057;28;20346;-72
2022/08/24 12:09:49;;;;;;;2.95;1.38;;;32.70;98.20;;;;;;4976384;28;20043;-72
2022/08/24 12:12:27;;;;;;;7.30;1.60;;;33.10;98.20;;;;;;4981423;28;20048;-72
2022/08/24 12:15:10;;;;;;;2.80;1.67;;;32.90;97.70;;;;;;4961422;29;20047;-72
2022/08/24 12:17:38;;;;;;;2.38;1.38;;;33.10;98.00;;;;;;4961274;29;20086;-72
2022/08/24 12:20:28;;;;;;;2.25;1.15;;;33.10;98.30;;;;;;4961071;28;20047;-72
2022/08/24 12:22:59;;;;;;;1.80;1.08;;;33.10;97.70;;;;;;4961084;29;20512;-72
2022/08/24 12:28:23;;;;;;;1.85;1.25;;;34.10;98.10;;;;;;4961150;28;20339;-72
2022/08/24 12:30:53;;;;;;;3.85;1.30;;;34.00;97.40;;;;;;4975262;28;20113;-73
2022/08/24 12:33:27;;;;;;;4.22;1.40;;;34.00;97.50;;;;;;4978195;28;20101;-72
2022/08/24 12:35:59;;;;;;;3.92;1.15;;;33.90;98.10;;;;;;4978749;28;20047;-72
2022/08/24 12:38:33;;;;;;;3.75;1.30;;;34.10;98.00;;;;;;4976282;28;20101;-71
2022/08/24 12:41:11;;;;;;;4.60;1.30;;;34.30;97.30;;;;;;4978908;28;20121;-70
2022/08/24 12:44:02;;;;;;;2.30;1.23;;;34.80;97.60;;;;;;4978820;28;20078;-71
2022/08/24 12:46:28;;;;;;;2.28;1.27;;;35.30;97.20;;;;;;4978908;28;20050;-71
2022/08/24 12:49:18;;;;;;;1.73;1.05;;;35.50;97.30;;;;;;4979142;28;20039;-70
2022/08/24 12:51:54;;;;;;;2.22;1.13;;;36.00;97.40;;;;;;4977693;28;20074;-94
2022/08/24 12:54:50;;;;;;;3.17;1.00;;;36.20;96.80;;;;;;4978904;28;20041;-72
2022/08/24 12:57:44;;;;;;;1.58;0.90;;;35.80;97.20;;;;;;4978131;28;20417;-70
2022/08/24 13:00:19;;;;;;;2.83;1.15;;;35.10;97.30;;;;;;4978586;28;20061;-71
2022/08/24 13:02:59;;;;;;;1.60;1.20;;;34.60;96.80;;;;;;4978262;28;20054;-71
2022/08/24 13:05:41;;;;;;;1.85;1.10;;;34.40;96.90;;;;;;4978729;28;20146;-70
2022/08/24 13:08:30;;;;;;;2.70;1.15;;;34.00;97.10;;;;;;4978713;28;20329;-70